Time;durP1;ratioP1;P1;durP2;ratioP2;P2;SDS_P1;SDS_P2;PMS_P1;PMS_P2;Temp;Humidity;BMP_temperature;BMP_pressure;BME280_temperature;BME280_humidity;BME280_pressure;Samples;Min_cycle;Max_cycle;Signal;HPM_P1;HPM_P2
2022/06/16 00:01:48;;;;;;;5.80;3.10;;;17.30;79.30;;;;;;4960014;28;20027;-69
2022/06/16 00:04:17;;;;;;;5.53;3.08;;;17.20;78.60;;;;;;4945967;28;20023;-69
2022/06/16 00:06:42;;;;;;;7.35;3.70;;;17.20;78.60;;;;;;4966201;28;20042;-69
2022/06/16 00:09:08;;;;;;;7.80;2.95;;;17.30;78.70;;;;;;4995629;28;20427;-69
2022/06/16 00:11:34;;;;;;;6.78;2.92;;;17.30;78.40;;;;;;4971603;28;20049;-69
2022/06/16 00:14:00;;;;;;;5.07;2.67;;;17.20;78.40;;;;;;4975994;28;20038;-69
2022/06/16 00:16:25;;;;;;;9.02;3.10;;;17.20;78.80;;;;;;4968944;28;20205;-69
2022/06/16 00:18:51;;;;;;;6.53;3.28;;;17.20;79.10;;;;;;4950598;28;20050;-69
2022/06/16 00:21:17;;;;;;;7.40;3.10;;;17.20;79.10;;;;;;4957038;28;20309;-68
2022/06/16 00:23:43;;;;;;;5.35;2.90;;;17.20;79.20;;;;;;4970388;28;20402;-69
2022/06/16 00:26:18;;;;;;;7.30;3.03;;;17.20;79.00;;;;;;4981682;28;20058;-68
2022/06/16 00:28:45;;;;;;;5.60;2.95;;;17.20;78.60;;;;;;4964155;28;20428;-69
2022/06/16 00:31:12;;;;;;;7.15;2.90;;;17.40;77.60;;;;;;4966031;28;20042;-68
2022/06/16 00:33:39;;;;;;;6.60;3.17;;;17.40;77.90;;;;;;4977262;28;20296;-69
2022/06/16 00:36:05;;;;;;;7.85;3.20;;;17.40;77.10;;;;;;4979031;28;20043;-68
2022/06/16 00:38:31;;;;;;;5.45;2.88;;;17.40;77.10;;;;;;4973759;28;20031;-68
2022/06/16 00:40:57;;;;;;;6.25;2.90;;;17.30;79.20;;;;;;4974959;28;20099;-69
2022/06/16 00:43:23;;;;;;;8.43;3.30;;;17.00;81.40;;;;;;4974359;28;20043;-68
2022/06/16 00:45:49;;;;;;;6.35;3.42;;;16.80;81.80;;;;;;4983903;28;20088;-69
2022/06/16 00:48:38;;;;;;;7.70;3.20;;;16.80;81.70;;;;;;4971245;28;20035;-68
2022/06/16 00:51:28;;;;;;;7.43;2.92;;;16.80;80.60;;;;;;4976367;28;20367;-68
2022/06/16 00:53:58;;;;;;;10.00;3.05;;;16.90;80.20;;;;;;4965072;28;20027;-68
2022/06/16 00:56:24;;;;;;;6.63;3.42;;;16.90;79.50;;;;;;4969944;28;20049;-68
2022/06/16 00:58:57;;;;;;;5.28;2.92;;;17.00;79.60;;;;;;4960889;28;20432;-68
2022/06/16 01:01:25;;;;;;;5.82;3.13;;;17.00;80.10;;;;;;4965522;28;20074;-67
2022/06/16 01:06:57;;;;;;;7.75;3.05;;;16.90;80.30;;;;;;5039561;28;20038;-69
2022/06/16 01:09:28;;;;;;;6.28;3.40;;;16.90;80.50;;;;;;5036032;28;20038;-72
2022/06/16 01:15:54;;;;;;;6.80;3.47;;;16.90;80.20;;;;;;4999478;28;20434;-69
2022/06/16 01:18:29;;;;;;;6.05;2.88;;;17.00;80.20;;;;;;4967347;28;20031;-69
2022/06/16 01:21:07;;;;;;;8.65;3.10;;;17.00;80.00;;;;;;4970500;28;20046;-68
2022/06/16 01:24:03;;;;;;;6.07;3.10;;;17.10;80.20;;;;;;4973714;28;20019;-69
2022/06/16 01:26:51;;;;;;;6.97;3.30;;;17.00;81.10;;;;;;4969455;28;20031;-67
2022/06/16 01:29:41;;;;;;;8.35;3.55;;;16.90;82.30;;;;;;4961412;28;20027;-69
2022/06/16 01:32:13;;;;;;;9.05;3.40;;;16.80;82.70;;;;;;4968131;28;20064;-69
2022/06/16 01:34:44;;;;;;;7.15;3.53;;;16.80;82.80;;;;;;4978086;28;20418;-69
2022/06/16 01:37:15;;;;;;;7.50;3.20;;;16.80;83.10;;;;;;4989948;28;20079;-69
2022/06/16 01:39:43;;;;;;;6.38;3.90;;;16.70;83.90;;;;;;4971958;28;20031;-69
2022/06/16 01:42:40;;;;;;;6.18;3.20;;;16.60;83.90;;;;;;4962745;28;20324;-69
2022/06/16 01:45:34;;;;;;;5.90;3.40;;;16.60;84.40;;;;;;4991661;28;20062;-69
2022/06/16 01:48:00;;;;;;;9.35;3.80;;;16.50;85.20;;;;;;4962963;28;20507;-69
2022/06/16 01:50:40;;;;;;;9.82;3.88;;;16.50;85.20;;;;;;4964048;28;20050;-69
2022/06/16 01:53:11;;;;;;;6.40;3.33;;;16.50;84.90;;;;;;4968102;28;20515;-68
2022/06/16 01:55:44;;;;;;;10.02;3.53;;;16.50;85.00;;;;;;4968157;28;20062;-69
2022/06/16 01:58:16;;;;;;;8.20;3.78;;;16.50;85.60;;;;;;4969414;28;20324;-68
2022/06/16 02:00:45;;;;;;;6.78;3.25;;;16.60;85.40;;;;;;4966429;28;20050;-69
2022/06/16 02:03:20;;;;;;;6.05;3.65;;;16.60;83.80;;;;;;4975068;28;20031;-68
2022/06/16 02:05:51;;;;;;;7.53;3.70;;;16.70;83.70;;;;;;4969388;28;20023;-69
2022/06/16 02:08:26;;;;;;;7.28;3.92;;;16.70;83.60;;;;;;4962513;28;20110;-68
2022/06/16 02:11:07;;;;;;;7.80;3.75;;;16.70;83.50;;;;;;4968318;28;20037;-69
2022/06/16 02:13:38;;;;;;;7.57;3.53;;;16.60;83.80;;;;;;4956681;28;20027;-68
2022/06/16 02:16:27;;;;;;;5.78;3.58;;;16.60;84.60;;;;;;4968628;28;20021;-68
2022/06/16 02:18:54;;;;;;;8.43;3.33;;;16.60;85.20;;;;;;4969997;28;20447;-68
2022/06/16 02:21:39;;;;;;;6.57;3.53;;;16.60;85.10;;;;;;4960768;28;20366;-68
2022/06/16 02:24:07;;;;;;;7.18;3.63;;;16.40;84.80;;;;;;4973414;28;20437;-69
2022/06/16 02:26:34;;;;;;;9.35;3.63;;;16.30;85.40;;;;;;4961295;28;20052;-69
2022/06/16 02:29:29;;;;;;;8.45;3.78;;;16.20;86.00;;;;;;4970603;28;20066;-68
2022/06/16 02:32:32;;;;;;;7.95;3.45;;;16.10;86.00;;;;;;4959622;28;20563;-69
2022/06/16 02:35:03;;;;;;;8.57;4.05;;;16.20;85.80;;;;;;4963883;28;20031;-69
2022/06/16 02:37:43;;;;;;;9.73;3.72;;;16.30;85.40;;;;;;4952925;28;20042;-70
2022/06/16 02:40:11;;;;;;;7.57;3.75;;;16.40;85.10;;;;;;4971068;28;20388;-69
2022/06/16 02:42:51;;;;;;;5.50;3.28;;;16.40;85.20;;;;;;4956565;28;20039;-69
2022/06/16 02:45:26;;;;;;;6.03;3.83;;;16.30;86.40;;;;;;4962724;28;20023;-68
2022/06/16 02:48:26;;;;;;;9.35;3.90;;;16.20;87.50;;;;;;4968888;28;20049;-68
2022/06/16 02:51:08;;;;;;;8.00;3.83;;;16.20;88.80;;;;;;4958167;28;20031;-68
2022/06/16 02:53:43;;;;;;;7.50;4.05;;;16.10;89.60;;;;;;4969447;28;20046;-67
2022/06/16 02:56:44;;;;;;;6.53;3.60;;;15.90;89.90;;;;;;4966982;28;20027;-68
2022/06/16 02:59:15;;;;;;;9.57;3.80;;;16.00;89.80;;;;;;4970340;28;20023;-68
2022/06/16 03:01:41;;;;;;;11.70;4.50;;;16.00;89.30;;;;;;4965694;28;20023;-68
2022/06/16 03:04:13;;;;;;;9.00;4.10;;;16.10;89.50;;;;;;4961648;28;20031;-68
2022/06/16 03:06:39;;;;;;;8.85;4.10;;;16.20;89.60;;;;;;4959841;28;20035;-69
2022/06/16 03:09:07;;;;;;;6.82;3.85;;;16.20;90.00;;;;;;4964510;28;20388;-69
2022/06/16 03:11:35;;;;;;;6.78;3.67;;;16.10;90.20;;;;;;4967305;28;20035;-68
2022/06/16 03:14:03;;;;;;;6.97;4.00;;;15.90;90.90;;;;;;4971670;28;20438;-69
2022/06/16 03:16:29;;;;;;;6.72;4.22;;;15.70;91.40;;;;;;4967578;28;20156;-68
2022/06/16 03:18:55;;;;;;;6.63;3.90;;;15.50;91.90;;;;;;4963592;28;20117;-68
2022/06/16 03:21:21;;;;;;;6.60;4.03;;;15.50;92.00;;;;;;4966877;28;20176;-68
2022/06/16 03:23:50;;;;;;;6.55;3.83;;;15.70;91.50;;;;;;4957150;28;20124;-70
2022/06/16 03:26:17;;;;;;;8.57;4.30;;;15.90;91.10;;;;;;4965279;28;20081;-68
2022/06/16 03:28:43;;;;;;;6.72;4.10;;;16.00;91.00;;;;;;4975643;28;20035;-68
2022/06/16 03:31:09;;;;;;;7.40;3.80;;;16.10;90.90;;;;;;4966953;28;20420;-68
2022/06/16 03:33:38;;;;;;;8.70;3.92;;;16.20;91.20;;;;;;4966444;28;20435;-69
2022/06/16 03:36:03;;;;;;;7.85;4.03;;;16.20;90.70;;;;;;4961058;28;20065;-69
2022/06/16 03:40:55;;;;;;;8.95;3.92;;;16.30;90.70;;;;;;4959192;28;20032;-69
2022/06/16 03:43:20;;;;;;;13.13;4.18;;;16.50;90.90;;;;;;4959261;28;20024;-69
2022/06/16 03:45:47;;;;;;;7.18;4.22;;;16.60;90.80;;;;;;4951813;28;20039;-68
2022/06/16 03:48:13;;;;;;;7.07;4.25;;;16.80;90.60;;;;;;4967400;28;20148;-69
2022/06/16 03:50:39;;;;;;;6.32;3.55;;;17.00;89.70;;;;;;4965922;28;20048;-68
2022/06/16 03:53:05;;;;;;;8.63;3.85;;;17.30;89.30;;;;;;4972572;28;20153;-68
2022/06/16 03:55:34;;;;;;;7.00;3.95;;;17.30;89.10;;;;;;4969205;28;20483;-68
2022/06/16 03:58:00;;;;;;;8.20;3.95;;;17.30;89.30;;;;;;4971115;28;20296;-68
2022/06/16 04:00:25;;;;;;;7.30;3.95;;;17.30;89.50;;;;;;4970302;28;20163;-70
2022/06/16 04:03:59;;;;;;;7.20;3.55;;;17.30;90.10;;;;;;4969823;28;20035;-69
2022/06/16 04:05:38;;;;;;;6.35;3.65;;;17.30;90.00;;;;;;4967729;28;20063;-70
2022/06/16 04:08:04;;;;;;;8.73;3.53;;;17.30;89.80;;;;;;4977781;28;20033;-69
2022/06/16 04:10:30;;;;;;;6.78;3.90;;;17.30;89.70;;;;;;4980823;28;20044;-69
2022/06/16 04:12:55;;;;;;;6.60;3.80;;;17.40;90.80;;;;;;4959753;28;20029;-70
2022/06/16 04:15:21;;;;;;;6.03;3.67;;;17.30;90.00;;;;;;4959101;28;20081;-69
2022/06/16 04:17:46;;;;;;;7.15;3.75;;;17.30;89.90;;;;;;4967741;28;20065;-69
2022/06/16 04:20:12;;;;;;;5.68;3.85;;;17.20;89.60;;;;;;4967666;28;20416;-69
2022/06/16 04:22:41;;;;;;;7.43;3.70;;;17.30;89.80;;;;;;4970293;28;20114;-69
2022/06/16 04:25:12;;;;;;;6.55;3.33;;;17.40;89.30;;;;;;4965297;28;20036;-69
2022/06/16 04:27:39;;;;;;;9.98;4.00;;;17.60;89.50;;;;;;4957122;28;20027;-69
2022/06/16 04:30:05;;;;;;;6.82;3.60;;;17.70;89.20;;;;;;4960086;28;20361;-68
2022/06/16 04:32:31;;;;;;;6.13;3.38;;;17.80;88.90;;;;;;4958850;28;20031;-69
2022/06/16 04:34:56;;;;;;;7.13;3.72;;;17.90;89.40;;;;;;4967872;28;20033;-69
2022/06/16 04:37:22;;;;;;;8.30;4.13;;;18.00;89.60;;;;;;4968455;28;20073;-69
2022/06/16 04:39:48;;;;;;;7.82;4.40;;;18.00;89.60;;;;;;4965369;28;20484;-69
2022/06/16 04:42:13;;;;;;;6.07;3.90;;;18.00;89.70;;;;;;4961168;28;20516;-69
2022/06/16 04:44:40;;;;;;;6.85;3.63;;;18.10;89.60;;;;;;4959650;28;20086;-69
2022/06/16 04:47:06;;;;;;;8.57;4.63;;;18.30;89.80;;;;;;4957965;28;20478;-69
2022/06/16 04:49:34;;;;;;;6.47;3.63;;;18.50;89.10;;;;;;4964994;28;20433;-69
2022/06/16 04:52:00;;;;;;;8.18;3.83;;;18.70;88.70;;;;;;4957220;28;20031;-69
2022/06/16 04:54:25;;;;;;;5.88;3.40;;;18.80;88.50;;;;;;4966748;28;20022;-69
2022/06/16 04:56:51;;;;;;;6.55;3.72;;;18.90;88.70;;;;;;4968459;28;20031;-69
2022/06/16 04:59:17;;;;;;;5.75;3.60;;;19.00;88.70;;;;;;4972076;28;20046;-69
2022/06/16 05:01:43;;;;;;;5.70;3.22;;;19.10;88.50;;;;;;4986480;28;20031;-69
2022/06/16 05:04:08;;;;;;;6.35;3.72;;;19.00;89.30;;;;;;4969137;28;20061;-69
2022/06/16 05:06:34;;;;;;;7.78;4.03;;;19.00;89.10;;;;;;4980468;28;20412;-69
2022/06/16 05:09:00;;;;;;;9.50;3.80;;;19.10;89.50;;;;;;4960297;28;20027;-69
2022/06/16 05:11:25;;;;;;;6.93;3.70;;;19.20;89.00;;;;;;4965018;28;20054;-69
2022/06/16 05:13:51;;;;;;;7.85;3.75;;;19.10;89.60;;;;;;4961981;28;20036;-68
2022/06/16 05:16:17;;;;;;;7.15;3.67;;;19.00;89.70;;;;;;4963980;28;20530;-68
2022/06/16 05:18:43;;;;;;;7.15;3.72;;;19.00;89.70;;;;;;4972904;28;20600;-68
2022/06/16 05:21:14;;;;;;;7.72;3.83;;;19.10;89.40;;;;;;4968965;28;20154;-68
2022/06/16 05:23:40;;;;;;;8.73;3.58;;;19.30;89.40;;;;;;4969490;28;20030;-69
2022/06/16 05:26:07;;;;;;;6.70;3.78;;;19.40;89.60;;;;;;4968819;28;20451;-68
2022/06/16 05:28:35;;;;;;;9.02;3.92;;;19.40;89.30;;;;;;4972349;28;20320;-69
2022/06/16 05:31:01;;;;;;;8.52;4.32;;;19.50;89.60;;;;;;4966522;28;20022;-68
2022/06/16 05:33:27;;;;;;;9.35;4.15;;;19.50;89.10;;;;;;4963250;28;20180;-68
2022/06/16 05:36:01;;;;;;;8.77;3.63;;;19.40;89.70;;;;;;4965216;28;20110;-69
2022/06/16 05:38:27;;;;;;;7.35;4.03;;;19.50;88.60;;;;;;4962268;28;20328;-68
2022/06/16 05:41:02;;;;;;;7.28;3.40;;;19.70;88.90;;;;;;4960219;28;20372;-69
2022/06/16 05:43:29;;;;;;;7.68;3.90;;;20.20;89.80;;;;;;4963587;28;20031;-68
2022/06/16 05:45:56;;;;;;;8.32;3.80;;;20.90;86.90;;;;;;4976452;28;20068;-68
2022/06/16 05:48:22;;;;;;;6.60;3.83;;;21.50;85.30;;;;;;4969116;28;20035;-67
2022/06/16 05:50:48;;;;;;;8.38;3.55;;;22.00;85.60;;;;;;4968696;28;20085;-68
2022/06/16 05:53:14;;;;;;;7.03;3.85;;;22.20;84.00;;;;;;4964979;28;20030;-69
2022/06/16 05:55:40;;;;;;;8.93;3.60;;;22.40;81.20;;;;;;4971435;28;20035;-68
2022/06/16 05:58:05;;;;;;;6.15;3.40;;;22.50;78.70;;;;;;4966921;28;20031;-68
2022/06/16 06:00:31;;;;;;;10.95;3.70;;;22.60;79.80;;;;;;4961335;28;20046;-69
2022/06/16 06:02:58;;;;;;;5.90;3.15;;;22.50;80.40;;;;;;4957805;28;20117;-68
2022/06/16 06:05:25;;;;;;;8.32;3.22;;;22.50;83.40;;;;;;4971024;28;20320;-68
2022/06/16 06:18:49;;;;;;;8.10;3.17;;;23.80;77.30;;;;;;4963696;28;20085;-68
2022/06/16 06:21:15;;;;;;;7.35;3.40;;;24.00;74.10;;;;;;4961827;28;20019;-68
2022/06/16 06:23:41;;;;;;;6.15;3.83;;;24.10;75.00;;;;;;4962641;28;20027;-68
2022/06/16 06:26:12;;;;;;;7.18;3.78;;;24.10;75.00;;;;;;4958920;28;20041;-67
2022/06/16 06:28:37;;;;;;;7.28;3.40;;;24.20;73.60;;;;;;4963760;28;20035;-68
2022/06/16 06:31:03;;;;;;;7.10;3.60;;;24.30;73.60;;;;;;4966001;28;20040;-68
2022/06/16 06:33:29;;;;;;;9.15;3.60;;;24.50;73.80;;;;;;4962517;28;20035;-68
2022/06/16 06:35:57;;;;;;;7.68;3.22;;;24.70;73.50;;;;;;4959012;28;20072;-68
2022/06/16 06:38:24;;;;;;;8.32;3.67;;;24.70;74.40;;;;;;4963969;28;20039;-68
2022/06/16 06:40:50;;;;;;;6.53;4.10;;;24.70;73.00;;;;;;4974131;28;20031;-68
2022/06/16 06:43:15;;;;;;;8.35;4.28;;;24.70;73.60;;;;;;4961450;28;20030;-68
2022/06/16 06:45:42;;;;;;;8.45;3.95;;;24.70;73.20;;;;;;4962837;28;20030;-68
2022/06/16 06:48:08;;;;;;;10.07;4.50;;;24.70;73.10;;;;;;4955121;28;20089;-68
2022/06/16 06:50:37;;;;;;;8.35;3.63;;;24.60;74.10;;;;;;4968200;28;20127;-68
2022/06/16 06:53:03;;;;;;;11.43;4.07;;;24.70;72.60;;;;;;4955661;28;20216;-70
2022/06/16 06:55:29;;;;;;;6.90;3.70;;;24.70;73.20;;;;;;4956395;28;20116;-69
2022/06/16 06:57:56;;;;;;;6.18;3.55;;;24.60;70.90;;;;;;4984031;28;20023;-69
2022/06/16 07:00:24;;;;;;;6.95;3.58;;;24.60;72.00;;;;;;4960065;28;20027;-69
2022/06/16 07:02:50;;;;;;;5.63;3.30;;;24.80;70.70;;;;;;4979002;28;20088;-69
2022/06/16 07:05:16;;;;;;;10.43;3.47;;;24.90;68.60;;;;;;5043873;28;20021;-69
2022/06/16 07:07:44;;;;;;;8.90;3.38;;;24.90;68.10;;;;;;4968328;28;20379;-69
2022/06/16 07:10:10;;;;;;;12.00;3.35;;;24.90;68.70;;;;;;4971921;28;20659;-69
2022/06/16 07:12:36;;;;;;;8.52;3.50;;;25.10;68.60;;;;;;4960146;28;20027;-69
2022/06/16 07:15:04;;;;;;;8.93;3.35;;;25.30;68.80;;;;;;4956180;28;20030;-68
2022/06/16 07:17:29;;;;;;;8.10;3.55;;;25.50;67.40;;;;;;4964247;28;20054;-69
2022/06/16 07:19:55;;;;;;;9.57;3.72;;;25.30;65.00;;;;;;4965204;28;20030;-69
2022/06/16 07:22:21;;;;;;;8.98;3.72;;;25.00;65.30;;;;;;4963205;28;20106;-69
2022/06/16 07:24:48;;;;;;;8.68;3.45;;;25.40;65.10;;;;;;4964668;28;20159;-69
2022/06/16 07:27:16;;;;;;;7.18;3.20;;;25.90;62.90;;;;;;4972077;28;20034;-69
2022/06/16 07:29:41;;;;;;;6.45;3.15;;;26.70;61.70;;;;;;4965853;28;20030;-68
2022/06/16 07:32:07;;;;;;;8.60;3.47;;;26.80;60.90;;;;;;4966532;28;20443;-69
2022/06/16 07:34:33;;;;;;;9.75;3.17;;;26.90;60.30;;;;;;4957500;28;20032;-68
2022/06/16 07:36:59;;;;;;;7.75;3.53;;;27.70;59.10;;;;;;4966505;28;20051;-68
2022/06/16 07:39:25;;;;;;;7.68;3.10;;;27.60;59.10;;;;;;4957167;28;20023;-69
2022/06/16 07:41:50;;;;;;;5.53;2.92;;;27.10;60.60;;;;;;4969502;28;20042;-68
2022/06/16 07:44:16;;;;;;;6.60;3.10;;;26.70;61.60;;;;;;4959427;28;20030;-69
2022/06/16 07:46:46;;;;;;;10.55;3.80;;;26.10;61.30;;;;;;4961051;28;20027;-68
2022/06/16 07:49:15;;;;;;;8.38;3.17;;;26.00;62.10;;;;;;4965422;28;20026;-68
2022/06/16 07:51:42;;;;;;;7.43;3.25;;;26.50;62.40;;;;;;4954412;28;20039;-69
2022/06/16 07:54:10;;;;;;;8.45;3.20;;;27.40;60.90;;;;;;4958189;28;20049;-69
2022/06/16 07:56:36;;;;;;;6.07;3.20;;;28.20;59.10;;;;;;4966449;28;20035;-69
2022/06/16 07:59:02;;;;;;;7.63;3.00;;;28.40;59.50;;;;;;4963282;28;20033;-68
2022/06/16 08:01:28;;;;;;;7.18;3.10;;;28.70;57.80;;;;;;4973122;28;20027;-68
2022/06/16 08:03:54;;;;;;;6.20;2.78;;;28.90;57.30;;;;;;4977608;28;20027;-69
2022/06/16 08:06:27;;;;;;;7.30;3.08;;;28.80;59.30;;;;;;4983568;28;20107;-69
2022/06/16 08:08:54;;;;;;;6.97;3.05;;;29.20;58.30;;;;;;4977401;28;20092;-69
2022/06/16 08:14:05;;;;;;;9.98;3.38;;;28.60;59.00;;;;;;4970779;28;20038;-68
2022/06/16 08:16:33;;;;;;;7.57;3.42;;;28.40;59.80;;;;;;4965400;28;20027;-68
2022/06/16 08:19:02;;;;;;;6.72;3.30;;;28.90;60.00;;;;;;4977679;28;20034;-73
2022/06/16 08:21:28;;;;;;;8.30;3.42;;;29.00;60.60;;;;;;4970799;28;20031;-71
2022/06/16 08:23:54;;;;;;;8.20;3.20;;;27.40;60.80;;;;;;4961581;28;20031;-68
2022/06/16 08:26:20;;;;;;;6.70;3.60;;;26.90;65.00;;;;;;4967092;28;20313;-68
2022/06/16 08:28:48;;;;;;;8.93;3.88;;;27.00;64.10;;;;;;4968538;28;20031;-67
2022/06/16 08:31:17;;;;;;;9.55;3.42;;;27.30;64.60;;;;;;4967843;28;20038;-68
2022/06/16 08:33:43;;;;;;;6.90;3.58;;;28.10;60.80;;;;;;4976045;28;20034;-69
2022/06/16 08:36:08;;;;;;;8.50;3.30;;;28.40;61.00;;;;;;4973510;28;20601;-68
2022/06/16 08:38:34;;;;;;;6.15;3.00;;;29.30;61.10;;;;;;4974857;28;20033;-69
2022/06/16 08:41:13;;;;;;;5.78;3.13;;;30.40;57.10;;;;;;4970412;28;20495;-67
2022/06/16 08:44:21;;;;;;;8.63;3.22;;;30.70;57.10;;;;;;4972280;28;20032;-69
2022/06/16 08:47:01;;;;;;;8.95;3.50;;;30.00;58.20;;;;;;4968072;28;20054;-68
2022/06/16 08:49:45;;;;;;;6.15;3.22;;;29.10;59.60;;;;;;4959801;28;20086;-69
2022/06/16 08:52:35;;;;;;;8.10;3.40;;;29.60;58.90;;;;;;4963917;28;20058;-69
2022/06/16 08:55:10;;;;;;;8.07;3.33;;;30.50;57.20;;;;;;4960798;28;20086;-69
2022/06/16 08:57:57;;;;;;;10.07;3.40;;;29.70;59.00;;;;;;4969499;28;20030;-69
2022/06/16 09:00:45;;;;;;;7.93;3.38;;;29.10;61.20;;;;;;4971379;28;20076;-69
2022/06/16 09:03:42;;;;;;;5.63;3.03;;;30.40;57.60;;;;;;4960367;28;20030;-69
2022/06/16 09:06:44;;;;;;;7.18;3.35;;;30.80;56.60;;;;;;4962017;28;20031;-68
2022/06/16 09:10:14;;;;;;;5.13;2.78;;;30.00;58.60;;;;;;4969005;28;20035;-69
2022/06/16 09:12:36;;;;;;;4.55;2.78;;;30.30;57.20;;;;;;4968804;28;20070;-69
2022/06/16 09:15:11;;;;;;;10.07;2.90;;;30.80;58.50;;;;;;4986836;28;20047;-69
2022/06/16 09:17:52;;;;;;;7.20;3.03;;;31.10;58.30;;;;;;4968483;28;20042;-68
2022/06/16 09:20:32;;;;;;;6.28;3.00;;;31.40;56.40;;;;;;4970110;28;20084;-68
2022/06/16 09:23:03;;;;;;;6.85;2.90;;;31.50;56.20;;;;;;4968663;28;20035;-69
2022/06/16 09:25:41;;;;;;;5.63;2.67;;;31.40;56.50;;;;;;4972362;28;20071;-68
2022/06/16 09:28:35;;;;;;;7.20;2.65;;;31.10;53.70;;;;;;4969738;28;20428;-68
2022/06/16 09:31:04;;;;;;;5.53;2.40;;;31.40;53.00;;;;;;4978199;28;20035;-68
2022/06/16 09:33:36;;;;;;;8.98;3.17;;;31.60;52.60;;;;;;4966203;28;20059;-69
2022/06/16 09:36:25;;;;;;;12.40;4.72;;;31.50;53.80;;;;;;4973438;28;20096;-68
2022/06/16 09:38:56;;;;;;;5.30;2.60;;;31.80;55.20;;;;;;4960734;28;20333;-68
2022/06/16 09:44:47;;;;;;;6.55;3.13;;;33.00;54.10;;;;;;4960468;28;20053;-68
2022/06/16 09:47:19;;;;;;;8.38;3.15;;;33.60;51.00;;;;;;4965879;28;20038;-68
2022/06/16 09:49:50;;;;;;;4.97;2.40;;;33.70;51.30;;;;;;4970574;28;20058;-70
2022/06/16 09:53:04;;;;;;;7.65;2.58;;;33.60;51.70;;;;;;4972233;28;20031;-70
2022/06/16 09:55:41;;;;;;;6.07;3.20;;;34.30;50.70;;;;;;4973592;28;20132;-70
2022/06/16 09:58:33;;;;;;;8.40;3.17;;;34.30;50.60;;;;;;4959366;28;20023;-70
2022/06/16 10:01:03;;;;;;;6.60;3.10;;;33.60;50.70;;;;;;4973761;28;20043;-69
2022/06/16 10:04:01;;;;;;;5.90;2.90;;;32.60;53.00;;;;;;4958442;28;20333;-69
2022/06/16 10:06:51;;;;;;;7.22;2.80;;;32.70;53.40;;;;;;4960789;28;20090;-69
2022/06/16 10:09:35;;;;;;;6.72;3.15;;;33.70;53.20;;;;;;4959868;28;20087;-69
2022/06/16 10:12:23;;;;;;;7.38;2.88;;;33.90;51.50;;;;;;4961666;28;20479;-70
2022/06/16 10:15:06;;;;;;;5.68;2.80;;;33.60;51.80;;;;;;4957481;28;20478;-69
2022/06/16 10:17:34;;;;;;;7.15;3.28;;;33.50;51.80;;;;;;4963166;28;20020;-69
2022/06/16 10:20:01;;;;;;;8.35;3.30;;;32.00;52.70;;;;;;4971015;28;20046;-69
2022/06/16 10:22:29;;;;;;;6.90;3.33;;;31.70;54.80;;;;;;4971175;28;20110;-71
2022/06/16 10:24:58;;;;;;;7.10;3.38;;;32.20;54.50;;;;;;4957965;28;20117;-70
2022/06/16 10:27:31;;;;;;;5.43;3.15;;;32.20;54.00;;;;;;4966214;28;20035;-70
2022/06/16 10:29:59;;;;;;;6.50;3.63;;;31.90;54.40;;;;;;4958819;28;20074;-70
2022/06/16 10:32:37;;;;;;;8.30;4.07;;;31.90;56.30;;;;;;4954960;28;20474;-69
2022/06/16 10:35:05;;;;;;;8.40;3.33;;;32.30;54.20;;;;;;4975220;28;20035;-69
2022/06/16 10:37:31;;;;;;;6.15;3.00;;;31.90;55.60;;;;;;5016851;28;20032;-69
2022/06/16 10:40:15;;;;;;;8.07;3.67;;;31.40;56.90;;;;;;5052342;28;20033;-69
2022/06/16 10:42:45;;;;;;;8.43;3.40;;;31.50;55.80;;;;;;4975536;28;20027;-69
2022/06/16 10:45:15;;;;;;;7.40;3.55;;;31.20;56.30;;;;;;4956316;28;20055;-69
2022/06/16 10:47:57;;;;;;;6.82;3.63;;;31.70;57.30;;;;;;4961015;28;20039;-69
2022/06/16 10:50:32;;;;;;;6.25;3.03;;;32.20;54.00;;;;;;4964330;28;20049;-69
2022/06/16 10:53:05;;;;;;;5.32;3.20;;;32.30;53.40;;;;;;4974695;28;20019;-69
2022/06/16 10:55:46;;;;;;;8.23;3.10;;;32.60;54.20;;;;;;4964625;28;20054;-69
2022/06/16 10:58:24;;;;;;;7.88;3.22;;;32.50;55.10;;;;;;4972093;28;20286;-70
2022/06/16 11:01:17;;;;;;;7.43;3.47;;;32.20;55.30;;;;;;4974735;28;20031;-70
2022/06/16 11:04:19;;;;;;;5.78;2.80;;;32.20;55.90;;;;;;4973545;28;20035;-69
2022/06/16 11:06:55;;;;;;;10.40;3.83;;;32.10;54.90;;;;;;4952603;28;20424;-70
2022/06/16 11:09:27;;;;;;;6.63;3.08;;;31.50;55.90;;;;;;5052826;28;20107;-69
2022/06/16 11:11:57;;;;;;;7.20;3.42;;;31.50;55.40;;;;;;5008665;28;20031;-69
2022/06/16 11:14:54;;;;;;;4.95;2.75;;;31.20;55.40;;;;;;4971129;28;20024;-70
2022/06/16 11:17:27;;;;;;;7.85;3.10;;;31.50;54.80;;;;;;4955109;28;20016;-70
2022/06/16 11:19:58;;;;;;;6.93;3.30;;;31.90;55.30;;;;;;4954289;28;20363;-69
2022/06/16 11:22:38;;;;;;;7.70;3.13;;;32.20;56.30;;;;;;4955158;28;20023;-69
2022/06/16 11:25:13;;;;;;;5.70;3.35;;;32.20;53.60;;;;;;4971748;28;20026;-69
2022/06/16 11:28:09;;;;;;;10.18;3.38;;;31.40;54.80;;;;;;4975368;28;20042;-69
2022/06/16 11:30:37;;;;;;;5.70;3.10;;;30.90;57.10;;;;;;4974230;28;20027;-69
2022/06/16 11:33:06;;;;;;;5.40;3.20;;;31.10;55.70;;;;;;4963803;28;20084;-69
2022/06/16 11:35:46;;;;;;;5.85;3.10;;;31.50;55.10;;;;;;4991160;28;20448;-69
2022/06/16 11:38:33;;;;;;;5.93;3.20;;;31.50;54.60;;;;;;4991367;28;20035;-69
2022/06/16 11:41:07;;;;;;;7.85;3.13;;;31.50;55.50;;;;;;4962034;28;20436;-70
2022/06/16 11:44:02;;;;;;;6.85;3.08;;;31.40;55.10;;;;;;4969130;28;20026;-69
2022/06/16 11:46:33;;;;;;;5.60;3.08;;;31.10;54.80;;;;;;4954863;28;20110;-70
2022/06/16 11:49:28;;;;;;;5.63;2.90;;;31.00;55.50;;;;;;4963291;28;20370;-69
2022/06/16 11:52:12;;;;;;;6.07;3.13;;;31.30;54.80;;;;;;4975243;28;20142;-69
2022/06/16 11:54:46;;;;;;;5.40;2.78;;;31.70;54.30;;;;;;4974008;28;20027;-69
2022/06/16 11:57:39;;;;;;;5.00;2.70;;;32.20;52.60;;;;;;4968271;28;20447;-70
2022/06/16 12:00:13;;;;;;;4.47;2.75;;;32.20;54.40;;;;;;4957068;28;20149;-70
2022/06/16 12:02:52;;;;;;;12.20;3.15;;;32.30;53.40;;;;;;4977392;28;20134;-70
2022/06/16 12:05:48;;;;;;;7.15;2.80;;;31.60;53.80;;;;;;4976195;28;20408;-70
2022/06/16 12:08:35;;;;;;;7.38;2.80;;;31.60;54.80;;;;;;4977400;28;20101;-71
2022/06/16 12:11:10;;;;;;;9.60;2.92;;;32.10;55.00;;;;;;4977151;28;20026;-70
2022/06/16 12:13:55;;;;;;;6.57;3.10;;;32.30;53.40;;;;;;4976393;28;20035;-71
2022/06/16 12:16:51;;;;;;;6.55;3.00;;;32.10;52.70;;;;;;4957963;28;20024;-71
2022/06/16 12:19:35;;;;;;;7.35;2.70;;;31.70;53.10;;;;;;4956698;28;20027;-71
2022/06/16 12:22:16;;;;;;;6.80;3.03;;;31.70;55.50;;;;;;5031272;28;20028;-70
2022/06/16 12:24:59;;;;;;;7.50;3.17;;;31.70;54.10;;;;;;4979735;28;20377;-70
2022/06/16 12:27:37;;;;;;;6.53;2.90;;;31.10;54.50;;;;;;4976098;28;20035;-70
2022/06/16 12:30:18;;;;;;;5.32;3.03;;;31.40;54.00;;;;;;4975827;28;20042;-70
2022/06/16 12:33:06;;;;;;;6.82;3.10;;;31.50;54.70;;;;;;4958499;28;20027;-69
2022/06/16 12:35:45;;;;;;;7.32;2.80;;;31.20;54.20;;;;;;5015626;28;20024;-69
2022/06/16 12:38:36;;;;;;;6.75;2.88;;;31.30;57.00;;;;;;5013353;28;20114;-70
2022/06/16 12:41:09;;;;;;;6.13;2.78;;;31.90;55.00;;;;;;4957829;28;20037;-69
2022/06/16 12:43:42;;;;;;;9.10;3.30;;;31.60;54.80;;;;;;4962473;28;20035;-71
2022/06/16 12:46:14;;;;;;;;;;;31.80;54.40;;;;;;4964883;28;20727;-71
2022/06/16 12:49:03;;;;;;;7.25;3.22;;;32.00;53.10;;;;;;4956462;28;20048;-71
2022/06/16 12:51:37;;;;;;;5.90;3.00;;;31.10;54.40;;;;;;4975509;28;20134;-71
2022/06/16 12:54:26;;;;;;;6.50;3.10;;;31.30;54.70;;;;;;4957381;28;20422;-71
2022/06/16 12:57:01;;;;;;;4.80;2.50;;;32.10;53.80;;;;;;4967107;28;20062;-71
2022/06/16 12:59:44;;;;;;;6.97;2.60;;;32.00;54.30;;;;;;4976709;28;20423;-70
2022/06/16 13:02:18;;;;;;;6.68;2.50;;;32.10;50.80;;;;;;4976657;28;20026;-70
2022/06/16 13:04:45;;;;;;;5.30;2.35;;;32.10;52.70;;;;;;4972996;28;20031;-69
2022/06/16 13:07:16;;;;;;;7.55;3.10;;;32.00;52.30;;;;;;4957067;28;20058;-70
2022/06/16 13:09:45;;;;;;;6.03;2.45;;;32.00;52.50;;;;;;4972194;28;20043;-69
2022/06/16 13:12:24;;;;;;;8.45;2.40;;;32.20;52.40;;;;;;4976313;28;20035;-70
2022/06/16 13:14:58;;;;;;;7.32;2.83;;;32.50;50.60;;;;;;4976468;28;20037;-70
2022/06/16 13:17:29;;;;;;;8.23;2.70;;;32.40;51.90;;;;;;4976198;28;20041;-70
2022/06/16 13:20:03;;;;;;;7.10;2.90;;;32.90;51.00;;;;;;4975993;28;20101;-70
2022/06/16 13:22:41;;;;;;;5.95;2.80;;;33.20;51.50;;;;;;4968112;28;20027;-70
2022/06/16 13:25:13;;;;;;;8.05;2.90;;;33.80;50.80;;;;;;4986353;28;20024;-70
2022/06/16 13:27:39;;;;;;;5.95;2.70;;;33.40;50.30;;;;;;5078187;28;20027;-70
2022/06/16 13:30:17;;;;;;;8.10;2.80;;;33.20;51.00;;;;;;5078151;28;20542;-70
2022/06/16 13:33:07;;;;;;;6.85;2.60;;;33.10;50.40;;;;;;5078138;28;20103;-70
2022/06/16 13:35:38;;;;;;;5.45;2.60;;;33.50;49.10;;;;;;5038822;28;20066;-70
2022/06/16 13:38:04;;;;;;;7.25;2.75;;;33.00;50.70;;;;;;5078045;28;20033;-69
2022/06/16 13:40:32;;;;;;;7.45;2.58;;;32.50;50.90;;;;;;5077829;28;20433;-71
2022/06/16 13:43:08;;;;;;;6.63;3.22;;;32.10;50.70;;;;;;5077885;28;20029;-70